sensor_id;sensor_type;location;lat;lon;timestamp;P1;durP1;ratioP1;P2;durP2;ratioP2
60919;SDS011;59039;52.108;19.942;2022-10-12T00:00:14;44.10;;;23.10;;
60919;SDS011;59039;52.108;19.942;2022-10-12T00:02:40;40.40;;;22.40;;
60919;SDS011;59039;52.108;19.942;2022-10-12T00:05:05;41.80;;;23.10;;
60919;SDS011;59039;52.108;19.942;2022-10-12T00:07:30;43.20;;;23.60;;
60919;SDS011;59039;52.108;19.942;2022-10-12T00:09:55;45.70;;;25.10;;
60919;SDS011;59039;52.108;19.942;2022-10-12T00:12:21;45.40;;;24.60;;
60919;SDS011;59039;52.108;19.942;2022-10-12T00:14:46;41.30;;;23.90;;
60919;SDS011;59039;52.108;19.942;2022-10-12T00:17:11;53.00;;;25.80;;
60919;SDS011;59039;52.108;19.942;2022-10-12T00:19:36;42.50;;;26.20;;
60919;SDS011;59039;52.108;19.942;2022-10-12T00:22:01;42.40;;;23.70;;
60919;SDS011;59039;52.108;19.942;2022-10-12T00:24:27;42.50;;;23.50;;
60919;SDS011;59039;52.108;19.942;2022-10-12T00:26:52;45.00;;;24.30;;
60919;SDS011;59039;52.108;19.942;2022-10-12T00:29:17;40.40;;;22.40;;
60919;SDS011;59039;52.108;19.942;2022-10-12T00:31:42;45.20;;;22.90;;
60919;SDS011;59039;52.108;19.942;2022-10-12T00:34:08;35.00;;;20.40;;
60919;SDS011;59039;52.108;19.942;2022-10-12T00:36:34;35.90;;;21.90;;
60919;SDS011;59039;52.108;19.942;2022-10-12T00:39:00;40.00;;;23.10;;
60919;SDS011;59039;52.108;19.942;2022-10-12T00:41:27;41.70;;;23.70;;
60919;SDS011;59039;52.108;19.942;2022-10-12T00:43:55;37.90;;;22.70;;
60919;SDS011;59039;52.108;19.942;2022-10-12T00:46:32;36.30;;;21.70;;
60919;SDS011;59039;52.108;19.942;2022-10-12T00:49:22;40.20;;;22.20;;
60919;SDS011;59039;52.108;19.942;2022-10-12T00:51:50;40.60;;;21.40;;
60919;SDS011;59039;52.108;19.942;2022-10-12T00:54:21;38.50;;;22.40;;
60919;SDS011;59039;52.108;19.942;2022-10-12T00:56:52;43.40;;;22.60;;
60919;SDS011;59039;52.108;19.942;2022-10-12T00:59:21;39.30;;;22.50;;
60919;SDS011;59039;52.108;19.942;2022-10-12T01:01:52;39.90;;;21.50;;
60919;SDS011;59039;52.108;19.942;2022-10-12T01:04:17;38.10;;;21.60;;
60919;SDS011;59039;52.108;19.942;2022-10-12T01:06:43;41.50;;;23.30;;
60919;SDS011;59039;52.108;19.942;2022-10-12T01:09:08;42.00;;;22.10;;
60919;SDS011;59039;52.108;19.942;2022-10-12T01:11:33;36.80;;;22.10;;
60919;SDS011;59039;52.108;19.942;2022-10-12T01:13:58;39.60;;;22.10;;
60919;SDS011;59039;52.108;19.942;2022-10-12T01:16:32;39.80;;;23.20;;
60919;SDS011;59039;52.108;19.942;2022-10-12T01:19:18;37.50;;;21.70;;
60919;SDS011;59039;52.108;19.942;2022-10-12T01:22:00;37.10;;;21.60;;
60919;SDS011;59039;52.108;19.942;2022-10-12T01:40:54;44.50;;;21.70;;
60919;SDS011;59039;52.108;19.942;2022-10-12T01:43:44;38.00;;;21.10;;
60919;SDS011;59039;52.108;19.942;2022-10-12T01:48:45;42.80;;;21.90;;
60919;SDS011;59039;52.108;19.942;2022-10-12T01:51:16;42.40;;;22.90;;
60919;SDS011;59039;52.108;19.942;2022-10-12T01:53:55;36.70;;;22.00;;
60919;SDS011;59039;52.108;19.942;2022-10-12T02:04:26;31.10;;;18.50;;
60919;SDS011;59039;52.108;19.942;2022-10-12T02:06:59;33.60;;;18.00;;
60919;SDS011;59039;52.108;19.942;2022-10-12T02:09:30;32.80;;;18.80;;
60919;SDS011;59039;52.108;19.942;2022-10-12T02:12:20;29.40;;;18.90;;
60919;SDS011;59039;52.108;19.942;2022-10-12T02:14:47;36.50;;;18.10;;
60919;SDS011;59039;52.108;19.942;2022-10-12T02:17:17;35.20;;;19.40;;
60919;SDS011;59039;52.108;19.942;2022-10-12T02:19:47;35.70;;;20.00;;
60919;SDS011;59039;52.108;19.942;2022-10-12T02:22:16;34.80;;;20.00;;
60919;SDS011;59039;52.108;19.942;2022-10-12T02:24:43;33.20;;;19.20;;
60919;SDS011;59039;52.108;19.942;2022-10-12T02:27:11;37.80;;;21.60;;
60919;SDS011;59039;52.108;19.942;2022-10-12T02:29:40;37.50;;;19.90;;
60919;SDS011;59039;52.108;19.942;2022-10-12T02:35:04;37.00;;;20.50;;
60919;SDS011;59039;52.108;19.942;2022-10-12T02:37:42;42.90;;;21.30;;
60919;SDS011;59039;52.108;19.942;2022-10-12T02:40:16;51.60;;;24.10;;
60919;SDS011;59039;52.108;19.942;2022-10-12T02:42:54;45.40;;;23.20;;
60919;SDS011;59039;52.108;19.942;2022-10-12T02:45:24;49.40;;;22.70;;
60919;SDS011;59039;52.108;19.942;2022-10-12T02:47:52;37.30;;;20.60;;
60919;SDS011;59039;52.108;19.942;2022-10-12T02:50:20;36.20;;;19.50;;
60919;SDS011;59039;52.108;19.942;2022-10-12T02:52:47;36.50;;;18.80;;
60919;SDS011;59039;52.108;19.942;2022-10-12T02:55:13;31.90;;;18.90;;
60919;SDS011;59039;52.108;19.942;2022-10-12T02:57:38;35.90;;;19.20;;
60919;SDS011;59039;52.108;19.942;2022-10-12T03:00:04;38.10;;;19.40;;
60919;SDS011;59039;52.108;19.942;2022-10-12T03:02:29;33.10;;;18.30;;
60919;SDS011;59039;52.108;19.942;2022-10-12T03:04:55;36.70;;;18.00;;
60919;SDS011;59039;52.108;19.942;2022-10-12T03:07:20;31.60;;;18.20;;
60919;SDS011;59039;52.108;19.942;2022-10-12T03:09:45;33.10;;;18.40;;
60919;SDS011;59039;52.108;19.942;2022-10-12T03:12:10;34.00;;;17.80;;
60919;SDS011;59039;52.108;19.942;2022-10-12T03:14:35;34.20;;;19.70;;
60919;SDS011;59039;52.108;19.942;2022-10-12T03:17:00;38.10;;;19.70;;
60919;SDS011;59039;52.108;19.942;2022-10-12T03:19:26;41.00;;;20.50;;
60919;SDS011;59039;52.108;19.942;2022-10-12T03:21:51;40.40;;;20.40;;
60919;SDS011;59039;52.108;19.942;2022-10-12T03:24:16;36.40;;;18.90;;
60919;SDS011;59039;52.108;19.942;2022-10-12T03:26:41;39.80;;;19.00;;
60919;SDS011;59039;52.108;19.942;2022-10-12T03:29:06;34.50;;;18.00;;
60919;SDS011;59039;52.108;19.942;2022-10-12T03:31:32;37.80;;;19.70;;
60919;SDS011;59039;52.108;19.942;2022-10-12T03:33:57;38.60;;;19.70;;
60919;SDS011;59039;52.108;19.942;2022-10-12T03:36:22;37.90;;;19.40;;
60919;SDS011;59039;52.108;19.942;2022-10-12T03:38:47;36.90;;;19.00;;
60919;SDS011;59039;52.108;19.942;2022-10-12T03:41:12;39.40;;;20.00;;
60919;SDS011;59039;52.108;19.942;2022-10-12T03:43:37;38.80;;;19.20;;
60919;SDS011;59039;52.108;19.942;2022-10-12T03:46:03;39.60;;;20.00;;
60919;SDS011;59039;52.108;19.942;2022-10-12T03:48:28;36.60;;;18.60;;
60919;SDS011;59039;52.108;19.942;2022-10-12T03:50:53;33.00;;;17.90;;
60919;SDS011;59039;52.108;19.942;2022-10-12T03:53:18;29.60;;;17.00;;
60919;SDS011;59039;52.108;19.942;2022-10-12T03:55:44;32.60;;;16.70;;
60919;SDS011;59039;52.108;19.942;2022-10-12T03:58:11;30.70;;;18.30;;
60919;SDS011;59039;52.108;19.942;2022-10-12T04:00:37;36.50;;;19.00;;
60919;SDS011;59039;52.108;19.942;2022-10-12T04:03:02;35.10;;;18.40;;
60919;SDS011;59039;52.108;19.942;2022-10-12T04:05:28;41.00;;;20.60;;
60919;SDS011;59039;52.108;19.942;2022-10-12T04:07:54;35.00;;;19.50;;
60919;SDS011;59039;52.108;19.942;2022-10-12T04:10:19;34.60;;;18.70;;
60919;SDS011;59039;52.108;19.942;2022-10-12T04:12:45;35.80;;;17.70;;
60919;SDS011;59039;52.108;19.942;2022-10-12T04:15:11;29.90;;;18.50;;
60919;SDS011;59039;52.108;19.942;2022-10-12T04:17:36;35.20;;;19.00;;
60919;SDS011;59039;52.108;19.942;2022-10-12T04:20:02;27.90;;;16.70;;
60919;SDS011;59039;52.108;19.942;2022-10-12T04:22:28;25.80;;;16.90;;
60919;SDS011;59039;52.108;19.942;2022-10-12T04:24:53;30.80;;;16.90;;
60919;SDS011;59039;52.108;19.942;2022-10-12T04:27:18;30.40;;;16.00;;
60919;SDS011;59039;52.108;19.942;2022-10-12T04:29:43;31.60;;;17.50;;
60919;SDS011;59039;52.108;19.942;2022-10-12T04:32:08;28.40;;;17.80;;
60919;SDS011;59039;52.108;19.942;2022-10-12T04:34:34;29.20;;;18.10;;
60919;SDS011;59039;52.108;19.942;2022-10-12T04:36:59;37.30;;;19.50;;
60919;SDS011;59039;52.108;19.942;2022-10-12T04:39:24;33.90;;;19.50;;
60919;SDS011;59039;52.108;19.942;2022-10-12T04:41:50;31.40;;;17.70;;
60919;SDS011;59039;52.108;19.942;2022-10-12T04:44:15;31.50;;;19.70;;
60919;SDS011;59039;52.108;19.942;2022-10-12T04:46:40;30.80;;;20.30;;
60919;SDS011;59039;52.108;19.942;2022-10-12T04:49:05;35.60;;;21.70;;
60919;SDS011;59039;52.108;19.942;2022-10-12T04:51:30;28.40;;;18.70;;
60919;SDS011;59039;52.108;19.942;2022-10-12T04:53:55;28.90;;;19.20;;
60919;SDS011;59039;52.108;19.942;2022-10-12T04:56:20;32.30;;;19.70;;
60919;SDS011;59039;52.108;19.942;2022-10-12T04:58:46;30.00;;;20.50;;
60919;SDS011;59039;52.108;19.942;2022-10-12T05:01:11;30.70;;;20.50;;
60919;SDS011;59039;52.108;19.942;2022-10-12T05:03:36;32.20;;;19.50;;
60919;SDS011;59039;52.108;19.942;2022-10-12T05:06:01;29.60;;;17.30;;
60919;SDS011;59039;52.108;19.942;2022-10-12T05:08:27;33.90;;;17.60;;
60919;SDS011;59039;52.108;19.942;2022-10-12T05:10:52;31.40;;;17.60;;
60919;SDS011;59039;52.108;19.942;2022-10-12T05:13:17;31.80;;;16.60;;
60919;SDS011;59039;52.108;19.942;2022-10-12T05:15:42;27.70;;;16.90;;
60919;SDS011;59039;52.108;19.942;2022-10-12T05:18:08;28.20;;;17.90;;
60919;SDS011;59039;52.108;19.942;2022-10-12T05:20:34;33.50;;;18.80;;
60919;SDS011;59039;52.108;19.942;2022-10-12T05:22:59;34.00;;;17.70;;
60919;SDS011;59039;52.108;19.942;2022-10-12T05:25:25;29.80;;;18.90;;
60919;SDS011;59039;52.108;19.942;2022-10-12T05:27:50;30.90;;;18.30;;
60919;SDS011;59039;52.108;19.942;2022-10-12T05:30:16;33.80;;;17.40;;
60919;SDS011;59039;52.108;19.942;2022-10-12T05:32:41;34.30;;;17.50;;
60919;SDS011;59039;52.108;19.942;2022-10-12T05:35:06;31.30;;;18.00;;
60919;SDS011;59039;52.108;19.942;2022-10-12T05:37:32;29.80;;;16.40;;
60919;SDS011;59039;52.108;19.942;2022-10-12T05:39:57;29.40;;;17.20;;
60919;SDS011;59039;52.108;19.942;2022-10-12T05:42:23;27.30;;;16.50;;
60919;SDS011;59039;52.108;19.942;2022-10-12T05:44:48;31.20;;;16.60;;
60919;SDS011;59039;52.108;19.942;2022-10-12T05:47:13;29.90;;;16.20;;
60919;SDS011;59039;52.108;19.942;2022-10-12T05:49:38;25.80;;;15.40;;
60919;SDS011;59039;52.108;19.942;2022-10-12T05:52:03;25.80;;;15.10;;
60919;SDS011;59039;52.108;19.942;2022-10-12T05:54:29;27.10;;;15.00;;
60919;SDS011;59039;52.108;19.942;2022-10-12T05:56:54;28.30;;;15.50;;
60919;SDS011;59039;52.108;19.942;2022-10-12T05:59:19;26.00;;;14.60;;
60919;SDS011;59039;52.108;19.942;2022-10-12T06:01:44;27.60;;;14.50;;
60919;SDS011;59039;52.108;19.942;2022-10-12T06:04:09;26.10;;;16.30;;
60919;SDS011;59039;52.108;19.942;2022-10-12T06:06:35;26.50;;;15.50;;
60919;SDS011;59039;52.108;19.942;2022-10-12T06:09:00;38.00;;;16.70;;
60919;SDS011;59039;52.108;19.942;2022-10-12T06:11:25;32.40;;;15.70;;
60919;SDS011;59039;52.108;19.942;2022-10-12T06:13:51;27.70;;;16.40;;
60919;SDS011;59039;52.108;19.942;2022-10-12T06:16:16;32.50;;;16.20;;
60919;SDS011;59039;52.108;19.942;2022-10-12T06:18:41;27.70;;;15.50;;
60919;SDS011;59039;52.108;19.942;2022-10-12T06:21:06;36.10;;;18.30;;
60919;SDS011;59039;52.108;19.942;2022-10-12T06:23:31;34.60;;;17.40;;
60919;SDS011;59039;52.108;19.942;2022-10-12T06:25:56;33.30;;;16.70;;
60919;SDS011;59039;52.108;19.942;2022-10-12T06:28:22;38.90;;;17.00;;
60919;SDS011;59039;52.108;19.942;2022-10-12T06:30:54;28.70;;;15.40;;
60919;SDS011;59039;52.108;19.942;2022-10-12T06:33:21;35.90;;;17.70;;
60919;SDS011;59039;52.108;19.942;2022-10-12T06:35:47;31.20;;;16.50;;
60919;SDS011;59039;52.108;19.942;2022-10-12T06:38:12;27.10;;;15.10;;
60919;SDS011;59039;52.108;19.942;2022-10-12T06:40:37;28.40;;;15.70;;
60919;SDS011;59039;52.108;19.942;2022-10-12T06:43:02;29.40;;;15.30;;
60919;SDS011;59039;52.108;19.942;2022-10-12T06:45:28;31.20;;;16.00;;
60919;SDS011;59039;52.108;19.942;2022-10-12T06:47:54;25.40;;;15.20;;
60919;SDS011;59039;52.108;19.942;2022-10-12T06:50:19;30.70;;;15.20;;
60919;SDS011;59039;52.108;19.942;2022-10-12T06:52:45;35.90;;;15.90;;
60919;SDS011;59039;52.108;19.942;2022-10-12T06:55:11;35.70;;;17.20;;
60919;SDS011;59039;52.108;19.942;2022-10-12T06:57:36;34.20;;;17.30;;
60919;SDS011;59039;52.108;19.942;2022-10-12T07:00:02;33.80;;;17.80;;
60919;SDS011;59039;52.108;19.942;2022-10-12T07:02:29;49.20;;;26.40;;
60919;SDS011;59039;52.108;19.942;2022-10-12T07:04:54;48.00;;;26.20;;
60919;SDS011;59039;52.108;19.942;2022-10-12T07:07:19;47.40;;;25.00;;
60919;SDS011;59039;52.108;19.942;2022-10-12T07:09:44;43.00;;;21.90;;
60919;SDS011;59039;52.108;19.942;2022-10-12T07:12:09;34.40;;;18.40;;
60919;SDS011;59039;52.108;19.942;2022-10-12T07:14:35;30.10;;;16.70;;
60919;SDS011;59039;52.108;19.942;2022-10-12T07:17:02;32.80;;;17.10;;
60919;SDS011;59039;52.108;19.942;2022-10-12T07:19:27;29.20;;;14.60;;
60919;SDS011;59039;52.108;19.942;2022-10-12T07:21:53;25.70;;;13.60;;
60919;SDS011;59039;52.108;19.942;2022-10-12T07:24:18;26.50;;;14.70;;
60919;SDS011;59039;52.108;19.942;2022-10-12T07:26:43;24.70;;;12.80;;
60919;SDS011;59039;52.108;19.942;2022-10-12T07:29:08;22.70;;;11.90;;
60919;SDS011;59039;52.108;19.942;2022-10-12T07:31:33;25.20;;;12.90;;
60919;SDS011;59039;52.108;19.942;2022-10-12T07:33:59;23.50;;;12.50;;
60919;SDS011;59039;52.108;19.942;2022-10-12T07:36:24;23.60;;;12.80;;
60919;SDS011;59039;52.108;19.942;2022-10-12T07:38:49;24.30;;;13.70;;
60919;SDS011;59039;52.108;19.942;2022-10-12T07:41:14;22.80;;;11.90;;
60919;SDS011;59039;52.108;19.942;2022-10-12T07:43:40;23.40;;;13.80;;
60919;SDS011;59039;52.108;19.942;2022-10-12T07:46:06;20.00;;;12.10;;
60919;SDS011;59039;52.108;19.942;2022-10-12T07:48:32;24.00;;;12.60;;
60919;SDS011;59039;52.108;19.942;2022-10-12T07:51:07;24.70;;;12.60;;
60919;SDS011;59039;52.108;19.942;2022-10-12T07:53:34;21.10;;;12.70;;
60919;SDS011;59039;52.108;19.942;2022-10-12T07:56:00;25.40;;;13.00;;
60919;SDS011;59039;52.108;19.942;2022-10-12T07:58:27;27.30;;;12.70;;
60919;SDS011;59039;52.108;19.942;2022-10-12T08:00:52;26.20;;;13.60;;
60919;SDS011;59039;52.108;19.942;2022-10-12T08:03:18;24.10;;;12.20;;
60919;SDS011;59039;52.108;19.942;2022-10-12T08:05:43;24.80;;;11.70;;
60919;SDS011;59039;52.108;19.942;2022-10-12T08:08:08;26.70;;;13.20;;
60919;SDS011;59039;52.108;19.942;2022-10-12T08:10:34;26.60;;;13.10;;
60919;SDS011;59039;52.108;19.942;2022-10-12T08:12:59;22.90;;;12.30;;
60919;SDS011;59039;52.108;19.942;2022-10-12T08:15:25;23.30;;;12.40;;
60919;SDS011;59039;52.108;19.942;2022-10-12T08:17:50;22.30;;;12.00;;
60919;SDS011;59039;52.108;19.942;2022-10-12T08:20:15;30.00;;;13.60;;
60919;SDS011;59039;52.108;19.942;2022-10-12T08:22:40;29.20;;;14.00;;
60919;SDS011;59039;52.108;19.942;2022-10-12T08:25:05;21.80;;;11.80;;
60919;SDS011;59039;52.108;19.942;2022-10-12T08:27:31;18.40;;;11.50;;
60919;SDS011;59039;52.108;19.942;2022-10-12T08:29:56;20.50;;;10.60;;
60919;SDS011;59039;52.108;19.942;2022-10-12T08:32:21;28.00;;;11.60;;
60919;SDS011;59039;52.108;19.942;2022-10-12T08:34:46;22.90;;;12.90;;
60919;SDS011;59039;52.108;19.942;2022-10-12T08:37:12;22.90;;;11.40;;
60919;SDS011;59039;52.108;19.942;2022-10-12T08:39:37;16.00;;;9.70;;
60919;SDS011;59039;52.108;19.942;2022-10-12T08:42:25;21.00;;;9.40;;
60919;SDS011;59039;52.108;19.942;2022-10-12T08:45:12;21.10;;;9.10;;
60919;SDS011;59039;52.108;19.942;2022-10-12T08:47:51;16.60;;;8.30;;
60919;SDS011;59039;52.108;19.942;2022-10-12T08:50:45;15.70;;;7.70;;
60919;SDS011;59039;52.108;19.942;2022-10-12T08:56:15;16.80;;;8.10;;
60919;SDS011;59039;52.108;19.942;2022-10-12T08:58:41;17.90;;;7.80;;
60919;SDS011;59039;52.108;19.942;2022-10-12T09:01:20;17.10;;;8.60;;
60919;SDS011;59039;52.108;19.942;2022-10-12T09:06:48;17.40;;;7.50;;
60919;SDS011;59039;52.108;19.942;2022-10-12T09:15:32;21.10;;;8.20;;
60919;SDS011;59039;52.108;19.942;2022-10-12T09:18:02;17.80;;;7.30;;
60919;SDS011;59039;52.108;19.942;2022-10-12T09:20:51;14.10;;;7.10;;
60919;SDS011;59039;52.108;19.942;2022-10-12T09:23:24;14.80;;;7.00;;
60919;SDS011;59039;52.108;19.942;2022-10-12T09:25:52;13.00;;;6.90;;
60919;SDS011;59039;52.108;19.942;2022-10-12T09:28:34;18.90;;;7.00;;
60919;SDS011;59039;52.108;19.942;2022-10-12T09:31:26;14.40;;;6.80;;
60919;SDS011;59039;52.108;19.942;2022-10-12T09:33:58;19.70;;;7.30;;
60919;SDS011;59039;52.108;19.942;2022-10-12T09:36:30;16.10;;;7.20;;
60919;SDS011;59039;52.108;19.942;2022-10-12T09:38:58;13.70;;;6.10;;
60919;SDS011;59039;52.108;19.942;2022-10-12T09:41:28;12.30;;;6.00;;
60919;SDS011;59039;52.108;19.942;2022-10-12T09:43:59;12.10;;;6.30;;
60919;SDS011;59039;52.108;19.942;2022-10-12T09:46:28;13.20;;;6.10;;
60919;SDS011;59039;52.108;19.942;2022-10-12T09:49:01;11.80;;;6.50;;
60919;SDS011;59039;52.108;19.942;2022-10-12T09:51:26;13.60;;;6.50;;
60919;SDS011;59039;52.108;19.942;2022-10-12T09:53:53;12.60;;;6.30;;
60919;SDS011;59039;52.108;19.942;2022-10-12T09:56:26;10.70;;;5.90;;
60919;SDS011;59039;52.108;19.942;2022-10-12T09:58:55;9.90;;;5.40;;
60919;SDS011;59039;52.108;19.942;2022-10-12T10:01:25;11.50;;;5.50;;
60919;SDS011;59039;52.108;19.942;2022-10-12T10:06:30;13.60;;;6.60;;
60919;SDS011;59039;52.108;19.942;2022-10-12T10:08:55;11.00;;;5.10;;
60919;SDS011;59039;52.108;19.942;2022-10-12T10:11:22;11.50;;;4.80;;
60919;SDS011;59039;52.108;19.942;2022-10-12T10:13:51;11.60;;;4.80;;
60919;SDS011;59039;52.108;19.942;2022-10-12T10:16:18;15.60;;;4.30;;
60919;SDS011;59039;52.108;19.942;2022-10-12T10:18:48;8.30;;;3.40;;
60919;SDS011;59039;52.108;19.942;2022-10-12T10:21:27;7.30;;;3.60;;
60919;SDS011;59039;52.108;19.942;2022-10-12T10:24:02;12.20;;;4.00;;
60919;SDS011;59039;52.108;19.942;2022-10-12T10:26:49;7.70;;;3.30;;
60919;SDS011;59039;52.108;19.942;2022-10-12T10:29:43;9.30;;;3.60;;
60919;SDS011;59039;52.108;19.942;2022-10-12T10:34:43;8.80;;;3.80;;
60919;SDS011;59039;52.108;19.942;2022-10-12T10:37:12;10.80;;;4.00;;
60919;SDS011;59039;52.108;19.942;2022-10-12T10:39:46;12.70;;;4.60;;
60919;SDS011;59039;52.108;19.942;2022-10-12T10:42:17;8.70;;;4.20;;
60919;SDS011;59039;52.108;19.942;2022-10-12T10:44:48;8.50;;;3.40;;
60919;SDS011;59039;52.108;19.942;2022-10-12T10:47:15;11.80;;;4.20;;
60919;SDS011;59039;52.108;19.942;2022-10-12T10:49:44;9.80;;;3.80;;
60919;SDS011;59039;52.108;19.942;2022-10-12T10:52:35;11.10;;;4.40;;
60919;SDS011;59039;52.108;19.942;2022-10-12T10:55:19;13.10;;;4.20;;
60919;SDS011;59039;52.108;19.942;2022-10-12T11:00:30;7.80;;;3.10;;
60919;SDS011;59039;52.108;19.942;2022-10-12T11:03:00;10.30;;;3.30;;
60919;SDS011;59039;52.108;19.942;2022-10-12T11:05:37;9.30;;;3.00;;
60919;SDS011;59039;52.108;19.942;2022-10-12T11:08:13;10.30;;;4.10;;
60919;SDS011;59039;52.108;19.942;2022-10-12T11:10:46;12.40;;;3.70;;
60919;SDS011;59039;52.108;19.942;2022-10-12T11:13:22;5.60;;;3.10;;
60919;SDS011;59039;52.108;19.942;2022-10-12T11:15:57;8.60;;;3.50;;
60919;SDS011;59039;52.108;19.942;2022-10-12T11:18:49;8.70;;;3.60;;
60919;SDS011;59039;52.108;19.942;2022-10-12T11:21:20;6.70;;;2.90;;
60919;SDS011;59039;52.108;19.942;2022-10-12T11:23:53;8.00;;;3.10;;
60919;SDS011;59039;52.108;19.942;2022-10-12T11:26:40;12.40;;;4.20;;
60919;SDS011;59039;52.108;19.942;2022-10-12T11:29:11;9.40;;;3.90;;
60919;SDS011;59039;52.108;19.942;2022-10-12T11:31:40;10.90;;;3.30;;
60919;SDS011;59039;52.108;19.942;2022-10-12T11:34:15;10.30;;;3.40;;
60919;SDS011;59039;52.108;19.942;2022-10-12T11:36:44;8.40;;;3.70;;
60919;SDS011;59039;52.108;19.942;2022-10-12T11:39:18;6.00;;;3.10;;
60919;SDS011;59039;52.108;19.942;2022-10-12T11:41:51;6.20;;;3.30;;
60919;SDS011;59039;52.108;19.942;2022-10-12T11:44:27;7.10;;;3.40;;
60919;SDS011;59039;52.108;19.942;2022-10-12T11:47:02;11.10;;;3.80;;
60919;SDS011;59039;52.108;19.942;2022-10-12T11:49:36;9.10;;;3.50;;
60919;SDS011;59039;52.108;19.942;2022-10-12T11:52:13;13.00;;;4.30;;
60919;SDS011;59039;52.108;19.942;2022-10-12T11:57:20;9.60;;;4.10;;
60919;SDS011;59039;52.108;19.942;2022-10-12T11:59:55;11.30;;;4.00;;
60919;SDS011;59039;52.108;19.942;2022-10-12T12:11:05;11.20;;;4.40;;
60919;SDS011;59039;52.108;19.942;2022-10-12T12:19:45;8.90;;;3.90;;
60919;SDS011;59039;52.108;19.942;2022-10-12T12:22:24;11.60;;;5.30;;
60919;SDS011;59039;52.108;19.942;2022-10-12T12:30:21;7.30;;;3.90;;
60919;SDS011;59039;52.108;19.942;2022-10-12T12:32:53;10.40;;;3.90;;
60919;SDS011;59039;52.108;19.942;2022-10-12T12:35:38;8.00;;;4.00;;
60919;SDS011;59039;52.108;19.942;2022-10-12T12:38:19;10.40;;;3.80;;
60919;SDS011;59039;52.108;19.942;2022-10-12T12:52:02;9.70;;;3.90;;
60919;SDS011;59039;52.108;19.942;2022-10-12T12:54:34;10.80;;;4.40;;
60919;SDS011;59039;52.108;19.942;2022-10-12T12:57:11;9.60;;;4.40;;
60919;SDS011;59039;52.108;19.942;2022-10-12T13:02:49;11.60;;;5.60;;
60919;SDS011;59039;52.108;19.942;2022-10-12T13:06:00;11.30;;;5.70;;
60919;SDS011;59039;52.108;19.942;2022-10-12T13:11:42;7.70;;;4.10;;
60919;SDS011;59039;52.108;19.942;2022-10-12T13:19:44;7.00;;;3.00;;
60919;SDS011;59039;52.108;19.942;2022-10-12T13:22:12;10.10;;;3.80;;
60919;SDS011;59039;52.108;19.942;2022-10-12T13:24:45;10.90;;;3.30;;
60919;SDS011;59039;52.108;19.942;2022-10-12T13:30:29;8.30;;;3.10;;
60919;SDS011;59039;52.108;19.942;2022-10-12T13:32:44;7.90;;;3.70;;
60919;SDS011;59039;52.108;19.942;2022-10-12T13:35:21;7.10;;;3.30;;
60919;SDS011;59039;52.108;19.942;2022-10-12T13:38:04;9.30;;;4.50;;
60919;SDS011;59039;52.108;19.942;2022-10-12T13:40:48;7.70;;;3.00;;
60919;SDS011;59039;52.108;19.942;2022-10-12T13:45:51;9.80;;;4.00;;
60919;SDS011;59039;52.108;19.942;2022-10-12T13:48:18;8.70;;;3.60;;
60919;SDS011;59039;52.108;19.942;2022-10-12T13:50:56;6.90;;;2.70;;
60919;SDS011;59039;52.108;19.942;2022-10-12T13:53:23;7.80;;;3.20;;
60919;SDS011;59039;52.108;19.942;2022-10-12T13:55:59;5.80;;;2.70;;
60919;SDS011;59039;52.108;19.942;2022-10-12T13:58:38;6.70;;;2.90;;
60919;SDS011;59039;52.108;19.942;2022-10-12T14:01:04;10.20;;;3.40;;
60919;SDS011;59039;52.108;19.942;2022-10-12T14:03:43;6.80;;;3.10;;
60919;SDS011;59039;52.108;19.942;2022-10-12T14:06:28;7.20;;;3.00;;
60919;SDS011;59039;52.108;19.942;2022-10-12T14:09:08;10.30;;;4.00;;
60919;SDS011;59039;52.108;19.942;2022-10-12T14:11:39;13.40;;;4.40;;
60919;SDS011;59039;52.108;19.942;2022-10-12T14:14:10;7.10;;;3.60;;
60919;SDS011;59039;52.108;19.942;2022-10-12T14:16:43;8.70;;;4.30;;
60919;SDS011;59039;52.108;19.942;2022-10-12T14:21:55;9.70;;;3.50;;
60919;SDS011;59039;52.108;19.942;2022-10-12T14:24:23;75.60;;;31.50;;
60919;SDS011;59039;52.108;19.942;2022-10-12T14:26:53;80.00;;;31.90;;
60919;SDS011;59039;52.108;19.942;2022-10-12T14:29:40;22.10;;;8.70;;
60919;SDS011;59039;52.108;19.942;2022-10-12T14:34:37;7.50;;;4.00;;
60919;SDS011;59039;52.108;19.942;2022-10-12T14:39:36;6.20;;;3.30;;
60919;SDS011;59039;52.108;19.942;2022-10-12T14:42:03;10.30;;;3.50;;
60919;SDS011;59039;52.108;19.942;2022-10-12T14:44:42;6.80;;;3.30;;
60919;SDS011;59039;52.108;19.942;2022-10-12T14:50:06;9.40;;;3.50;;
60919;SDS011;59039;52.108;19.942;2022-10-12T14:55:02;13.00;;;4.90;;
60919;SDS011;59039;52.108;19.942;2022-10-12T14:57:29;27.80;;;9.70;;
60919;SDS011;59039;52.108;19.942;2022-10-12T15:00:02;21.90;;;8.50;;
60919;SDS011;59039;52.108;19.942;2022-10-12T15:04:56;10.70;;;4.60;;
60919;SDS011;59039;52.108;19.942;2022-10-12T15:07:25;9.70;;;3.70;;
60919;SDS011;59039;52.108;19.942;2022-10-12T15:09:54;8.00;;;4.00;;
60919;SDS011;59039;52.108;19.942;2022-10-12T15:12:20;9.20;;;4.10;;
60919;SDS011;59039;52.108;19.942;2022-10-12T15:14:46;10.40;;;4.00;;
60919;SDS011;59039;52.108;19.942;2022-10-12T15:17:12;11.30;;;4.10;;
60919;SDS011;59039;52.108;19.942;2022-10-12T15:19:39;10.00;;;4.10;;
60919;SDS011;59039;52.108;19.942;2022-10-12T15:24:56;8.60;;;4.10;;
60919;SDS011;59039;52.108;19.942;2022-10-12T15:27:21;9.50;;;4.60;;
60919;SDS011;59039;52.108;19.942;2022-10-12T15:29:46;11.00;;;5.10;;
60919;SDS011;59039;52.108;19.942;2022-10-12T15:32:13;11.20;;;5.50;;
60919;SDS011;59039;52.108;19.942;2022-10-12T15:34:40;15.20;;;6.00;;
60919;SDS011;59039;52.108;19.942;2022-10-12T15:37:05;10.30;;;5.40;;
60919;SDS011;59039;52.108;19.942;2022-10-12T15:39:31;13.90;;;5.80;;
60919;SDS011;59039;52.108;19.942;2022-10-12T15:41:57;11.90;;;5.60;;
60919;SDS011;59039;52.108;19.942;2022-10-12T15:44:22;12.40;;;5.70;;
60919;SDS011;59039;52.108;19.942;2022-10-12T15:46:48;13.70;;;6.70;;
60919;SDS011;59039;52.108;19.942;2022-10-12T15:49:15;18.70;;;8.20;;
60919;SDS011;59039;52.108;19.942;2022-10-12T15:51:43;22.30;;;9.30;;
60919;SDS011;59039;52.108;19.942;2022-10-12T15:54:11;25.20;;;10.10;;
60919;SDS011;59039;52.108;19.942;2022-10-12T15:56:37;22.50;;;9.80;;
60919;SDS011;59039;52.108;19.942;2022-10-12T15:59:02;22.10;;;9.60;;
60919;SDS011;59039;52.108;19.942;2022-10-12T16:01:29;20.70;;;9.10;;
60919;SDS011;59039;52.108;19.942;2022-10-12T16:03:54;18.30;;;9.40;;
60919;SDS011;59039;52.108;19.942;2022-10-12T16:06:19;17.70;;;8.60;;
60919;SDS011;59039;52.108;19.942;2022-10-12T16:08:45;17.80;;;9.00;;
60919;SDS011;59039;52.108;19.942;2022-10-12T16:11:11;20.80;;;8.70;;
60919;SDS011;59039;52.108;19.942;2022-10-12T16:13:38;17.90;;;8.90;;
60919;SDS011;59039;52.108;19.942;2022-10-12T16:16:05;16.30;;;8.60;;
60919;SDS011;59039;52.108;19.942;2022-10-12T16:18:31;24.80;;;13.00;;
60919;SDS011;59039;52.108;19.942;2022-10-12T16:20:56;61.20;;;26.30;;
60919;SDS011;59039;52.108;19.942;2022-10-12T16:23:23;26.80;;;12.70;;
60919;SDS011;59039;52.108;19.942;2022-10-12T16:25:51;26.90;;;11.20;;